Virginiborg — PBDL — position and weather

sailwx.info

Track history (hours):
 
Tides and Currents Weather Stations Pressure Air Temp Water Temp Dewpoint Dewpoint Depression Visibility Wind Speed Wind Dir Waves Ship Positions

Virginiborg

Last reported at 2014-Jul-25 11:33 UTC. Time now 2014-Jul-25 20:48 UTC.
Position N 56°40' E 011°46'.

Length 132 m; draft 8.2 m.

Type: Cargo ship. MMSI: 244632000.

Date/timePositionNaut miles runAvg speedWind from/ knotsBaromVisibWave heightAir tempDewpointWater temp
2014-Jul-25 11:33N 56°40' E 011°46'1111.3
2014-Jul-25 10:33N 56°51' E 011°48'1312.7
2014-Jul-25 09:31N 57°03' E 011°39'1212.7
2014-Jul-25 08:33N 57°15' E 011°32'1312.9
2014-Jul-25 07:33N 57°26' E 011°22'1312.7
2014-Jul-25 06:33N 57°36' E 011°06'1312.8
2014-Jul-25 05:33N 57°45' E 010°49'1212.1
2014-Jul-25 04:33N 57°46' E 010°26'1212.5
2014-Jul-25 03:33N 57°45' E 010°03'1312.7
2014-Jul-25 02:33N 57°45' E 009°39'1513.2
2014-Jul-25 01:24N 57°44' E 009°11'10712.1
2014-Jul-24 16:33N 58°03' E 005°52'1312.8
2014-Jul-24 15:32N 58°11' E 005°33'1312.6
2014-Jul-24 14:29N 58°20' E 005°15'1212.7
2014-Jul-24 13:32N 58°32' E 005°15'1312.5
2014-Jul-24 12:32N 58°44' E 005°17'1212.5
2014-Jul-24 11:33N 58°57' E 005°18'1211.8
2014-Jul-24 10:33N 59°08' E 005°26'1212.5
2014-Jul-24 09:34N 59°16' E 005°44'1111.0
2014-Jul-24 08:32N 59°22' E 006°03'0 0.0
2014-Jul-24 07:30N 59°22' E 006°03'0 0.0
2014-Jul-24 05:20N 59°22' E 006°03'0 0.0
2014-Jul-24 04:26N 59°22' E 006°03'0 0.0
2014-Jul-23 22:26N 59°22' E 006°03'0 0.0
2014-Jul-23 21:20N 59°22' E 006°03'0 0.0
2014-Jul-23 19:31N 59°22' E 006°03'0 0.0
2014-Jul-23 18:30N 59°22' E 006°03'0 0.0
2014-Jul-23 17:24N 59°22' E 006°03'0 0.0
2014-Jul-23 16:33N 59°22' E 006°03'0 0.0
2014-Jul-23 15:29N 59°22' E 006°03'0 0.0
2014-Jul-23 14:26N 59°22' E 006°03'0 0.0
2014-Jul-23 13:32N 59°22' E 006°03'10 9.9
2014-Jul-23 12:33N 59°17' E 005°46'1514.6
2014-Jul-23 11:34N 59°06' E 005°29'1010.2
2014-Jul-23 10:33N 58°57' E 005°19'1111.4
2014-Jul-23 09:33N 58°46' E 005°16'1212.5
2014-Jul-23 08:34N 58°34' E 005°12'1312.2
2014-Jul-23 07:32N 58°21' E 005°09'1312.5
2014-Jul-23 06:31N 58°09' E 005°07'21412.5
2014-Jul-22 13:28N 54°35' E 004°56'1112.3
2014-Jul-22 12:33N 54°24' E 004°56'1212.2
2014-Jul-22 11:33N 54°11' E 004°55'1212.1
2014-Jul-22 10:33N 53°59' E 004°54'1212.4
2014-Jul-22 09:33N 53°47' E 004°51'1312.7
2014-Jul-22 08:33N 53°35' E 004°48'1211.7
2014-Jul-22 07:31N 53°23' E 004°40'1212.0
2014-Jul-22 06:31N 53°12' E 004°33'1111.8
2014-Jul-22 05:33N 53°02' E 004°24'1212.1
2014-Jul-22 04:33N 52°51' E 004°15'1312.1
2014-Jul-22 03:29N 52°41' E 004°03'1212.4
2014-Jul-22 02:29N 52°32' E 003°48'1212.1
2014-Jul-22 01:31N 52°22' E 003°38'1512.9
2014-Jul-22 00:23N 52°09' E 003°29'1413.5
2014-Jul-21 23:19N 51°55' E 003°22'1213.6
2014-Jul-21 22:25N 51°43' E 003°16'1113.1
2014-Jul-21 21:33N 51°33' E 003°25'1111.5
2014-Jul-21 20:34N 51°26' E 003°40'311.3
2014-Jul-21 20:18N 51°24' E 003°43'6 8.0
2014-Jul-21 19:33N 51°20' E 003°49'7 6.6
2014-Jul-21 18:34N 51°13' E 003°48'4 3.9
2014-Jul-21 17:33N 51°09' E 003°47'0 0.0
2014-Jul-21 16:26N 51°09' E 003°47'0 0.0
2014-Jul-21 15:26N 51°09' E 003°47'0 0.0
2014-Jul-21 14:25N 51°09' E 003°47'0 0.0
2014-Jul-21 13:22N 51°09' E 003°47'0 0.0
2014-Jul-21 12:18N 51°09' E 003°47'0 0.0
2014-Jul-21 11:24N 51°09' E 003°47'0 0.0
2014-Jul-21 10:30N 51°09' E 003°47'0 0.0
2014-Jul-21 09:23N 51°09' E 003°47'0 0.0
2014-Jul-21 08:29N 51°09' E 003°47'0 0.0
2014-Jul-21 07:16N 51°09' E 003°47'0 0.0
2014-Jul-21 06:28N 51°09' E 003°47'0 0.0
2014-Jul-21 05:27N 51°09' E 003°47'0 0.0
2014-Jul-21 04:21N 51°09' E 003°47'0 0.0
2014-Jul-21 03:33N 51°09' E 003°47'0 0.0
2014-Jul-21 02:26N 51°09' E 003°47'0 0.0
2014-Jul-21 01:13N 51°09' E 003°47'0 0.0
2014-Jul-21 00:32N 51°09' E 003°47'0 0.0
2014-Jul-20 23:25N 51°09' E 003°47'0 0.0
2014-Jul-20 22:18N 51°09' E 003°47'0 0.0
2014-Jul-20 21:18N 51°09' E 003°47'0 0.0
2014-Jul-20 20:23N 51°09' E 003°47'0 0.0
2014-Jul-20 19:29N 51°09' E 003°47'0 0.0
2014-Jul-20 18:32N 51°09' E 003°47'0 0.0
2014-Jul-20 17:27N 51°09' E 003°47'0 0.0
2014-Jul-20 16:31N 51°09' E 003°47'0 0.0
2014-Jul-20 15:15N 51°09' E 003°47'0 0.0
2014-Jul-20 14:33N 51°09' E 003°47'0 0.0
2014-Jul-20 13:29N 51°09' E 003°47'0 0.0
2014-Jul-20 12:26N 51°09' E 003°47'0 0.0
2014-Jul-20 11:26N 51°09' E 003°47'0 0.0
2014-Jul-20 10:31N 51°09' E 003°47'0 0.0
2014-Jul-20 09:31N 51°09' E 003°47'0 0.0
2014-Jul-20 08:06N 51°09' E 003°47'0 0.0
2014-Jul-20 07:18N 51°09' E 003°47'0 0.0
2014-Jul-20 06:26N 51°09' E 003°47'0 0.0
2014-Jul-20 05:29N 51°09' E 003°47'0 0.0
2014-Jul-20 04:32N 51°09' E 003°47'0 0.0
2014-Jul-20 03:31N 51°09' E 003°47'0 0.0
2014-Jul-20 02:28N 51°09' E 003°47'0 0.0
2014-Jul-20 01:33N 51°09' E 003°47'0 0.0
2014-Jul-20 00:27N 51°09' E 003°47'0 0.0
2014-Jul-19 23:32N 51°09' E 003°47'0 0.0
2014-Jul-19 22:32N 51°09' E 003°47'0 0.0
2014-Jul-19 21:32N 51°09' E 003°47'0 0.0
2014-Jul-19 20:31N 51°09' E 003°47'0 0.0
2014-Jul-19 19:28N 51°09' E 003°47'0 0.0
2014-Jul-19 18:33N 51°09' E 003°47'0 0.0
2014-Jul-19 17:33N 51°09' E 003°47'0 0.0
2014-Jul-19 16:33N 51°09' E 003°47'0 0.0
2014-Jul-19 15:29N 51°09' E 003°47'0 0.0
2014-Jul-19 14:32N 51°09' E 003°47'0 0.0
2014-Jul-19 13:31N 51°09' E 003°47'0 0.0
2014-Jul-19 12:31N 51°09' E 003°47'0 0.0
2014-Jul-19 11:27N 51°09' E 003°47'0 0.0
2014-Jul-19 10:33N 51°09' E 003°47'0 0.0
2014-Jul-19 09:32N 51°09' E 003°47'0 0.0
2014-Jul-19 08:31N 51°09' E 003°47'0 0.0
2014-Jul-19 07:33N 51°09' E 003°47'0 0.0
2014-Jul-19 06:21N 51°09' E 003°47'0 0.0
2014-Jul-19 05:33N 51°09' E 003°47'0 0.0
2014-Jul-19 04:29N 51°09' E 003°47'0 0.0
2014-Jul-19 03:29N 51°09' E 003°47'0 0.0
2014-Jul-19 02:25N 51°09' E 003°47'0 0.0
2014-Jul-19 01:28N 51°09' E 003°47'0 0.0
2014-Jul-19 00:27N 51°09' E 003°47'0 0.0
2014-Jul-18 23:33N 51°09' E 003°47'0 0.0
2014-Jul-18 22:33N 51°09' E 003°47'0 0.0
2014-Jul-18 20:23N 51°09' E 003°47'0 0.0
2014-Jul-18 19:25N 51°09' E 003°47'0 0.0
2014-Jul-18 18:22N 51°09' E 003°47'0 0.0
2014-Jul-18 17:30N 51°09' E 003°47'0 0.0
2014-Jul-18 16:33N 51°09' E 003°47'0 0.0
2014-Jul-18 15:27N 51°09' E 003°47'0 0.0
2014-Jul-18 14:33N 51°09' E 003°47'0 0.0
2014-Jul-18 13:33N 51°09' E 003°47'0 0.0
2014-Jul-18 12:32N 51°09' E 003°47'0 0.0
2014-Jul-18 11:32N 51°09' E 003°47'0 0.0
2014-Jul-18 10:31N 51°09' E 003°47'0 0.0
2014-Jul-18 09:28N 51°09' E 003°47'0 0.0
2014-Jul-18 08:27N 51°09' E 003°47'0 0.0
2014-Jul-18 07:34N 51°09' E 003°47'0 0.0
2014-Jul-18 06:30N 51°09' E 003°47'0 0.0
2014-Jul-18 05:33N 51°09' E 003°47'0 0.0
2014-Jul-18 04:20N 51°09' E 003°47'0 0.0
2014-Jul-18 03:32N 51°09' E 003°47'0 0.0
2014-Jul-18 02:31N 51°09' E 003°47'0 0.0
2014-Jul-18 01:25N 51°09' E 003°47'0 0.0
2014-Jul-18 00:30N 51°09' E 003°47'0 0.0
2014-Jul-17 23:27N 51°09' E 003°47'0 0.0
2014-Jul-17 22:33N 51°09' E 003°47'0 0.0
2014-Jul-17 21:33N 51°09' E 003°47'0 0.0
2014-Jul-17 20:29N 51°09' E 003°47'0 0.0
2014-Jul-17 19:32N 51°09' E 003°47'0 0.0
2014-Jul-17 18:32N 51°09' E 003°47'0 0.0
2014-Jul-17 17:25N 51°09' E 003°47'0 0.0
2014-Jul-17 16:25N 51°09' E 003°47'0 0.0
2014-Jul-17 15:22N 51°09' E 003°47'0 0.0
2014-Jul-17 14:31N 51°09' E 003°47'0 0.0
2014-Jul-17 13:18N 51°09' E 003°47'0 0.0
2014-Jul-17 12:30N 51°09' E 003°47'0 0.0
2014-Jul-17 11:32N 51°09' E 003°47'0 0.0
2014-Jul-17 10:32N 51°09' E 003°47'0 0.0
2014-Jul-17 09:33N 51°09' E 003°47'0 0.0
2014-Jul-17 08:31N 51°09' E 003°47'0 0.0
2014-Jul-17 06:22N 51°09' E 003°47'0 0.0
2014-Jul-17 05:30N 51°09' E 003°47'0 0.0
2014-Jul-17 04:30N 51°09' E 003°47'0 0.0
2014-Jul-17 03:27N 51°09' E 003°47'0 0.0
2014-Jul-17 02:32N 51°09' E 003°47'0 0.0
2014-Jul-17 01:28N 51°09' E 003°47'0 0.0
2014-Jul-17 00:31N 51°09' E 003°47'0 0.0
2014-Jul-16 23:24N 51°09' E 003°47'0 0.0
2014-Jul-16 22:34N 51°09' E 003°47'0 0.0
2014-Jul-16 21:32N 51°09' E 003°47'0 0.0
2014-Jul-16 20:26N 51°09' E 003°47'0 0.0
2014-Jul-16 19:26N 51°09' E 003°47'0 0.0
2014-Jul-16 18:31N 51°09' E 003°47'0 0.0
2014-Jul-16 17:25N 51°09' E 003°47'0 0.0
2014-Jul-16 16:30N 51°09' E 003°47'0 0.0
2014-Jul-16 15:33N 51°09' E 003°47'0 0.0
2014-Jul-16 14:32N 51°09' E 003°47'0 0.0
2014-Jul-16 13:23N 51°09' E 003°47'0 0.0
2014-Jul-16 12:29N 51°09' E 003°47'0 0.0
2014-Jul-16 11:33N 51°09' E 003°47'0 0.0
2014-Jul-16 10:32N 51°09' E 003°47'0 0.0
2014-Jul-16 09:27N 51°09' E 003°47'0 0.0
2014-Jul-16 08:32N 51°09' E 003°47'0 0.0
2014-Jul-16 07:34N 51°09' E 003°47'0 0.0
2014-Jul-16 06:32N 51°09' E 003°47'0 0.0
2014-Jul-16 05:33N 51°09' E 003°47'0 0.0
2014-Jul-16 04:33N 51°09' E 003°47'0 0.0
2014-Jul-16 03:34N 51°09' E 003°47'0 0.0
2014-Jul-16 02:33N 51°09' E 003°47'0 0.0
2014-Jul-16 01:32N 51°09' E 003°47'0 0.0
2014-Jul-16 00:25N 51°09' E 003°47'0 0.0
2014-Jul-15 23:12N 51°09' E 003°47'0 0.0
2014-Jul-15 22:33N 51°09' E 003°47'0 0.0
2014-Jul-15 21:32N 51°09' E 003°47'0 0.0
2014-Jul-15 20:26N 51°09' E 003°47'0 0.0
2014-Jul-15 19:32N 51°09' E 003°47'0 0.0
2014-Jul-15 18:33N 51°09' E 003°47'0 0.0
2014-Jul-15 17:23N 51°09' E 003°47'0 0.0
2014-Jul-15 16:28N 51°09' E 003°47'0 0.0
2014-Jul-15 15:13N 51°09' E 003°47'0 0.0
2014-Jul-15 14:33N 51°09' E 003°47'0 0.0
2014-Jul-15 13:32N 51°09' E 003°47'0 0.0
2014-Jul-15 12:25N 51°09' E 003°47'  
Track history (hours):
 
Tides and Currents Weather Stations Pressure Air Temp Water Temp Dewpoint Dewpoint Depression Visibility Wind Speed Wind Dir Waves Ship Positions

Virginiborg

Last reported at 2014-Jul-25 11:33 UTC. Time now 2014-Jul-25 20:48 UTC.
Position N 56°40' E 011°46'.

Length 132 m; draft 8.2 m.

Type: Cargo ship. MMSI: 244632000.

Date/timePositionNaut miles runAvg speedWind from/ knotsBaromVisibWave heightAir tempDewpointWater temp
2014-Jul-25 11:33N 56°40' E 011°46'1111.3
2014-Jul-25 10:33N 56°51' E 011°48'1312.7
2014-Jul-25 09:31N 57°03' E 011°39'1212.7
2014-Jul-25 08:33N 57°15' E 011°32'1312.9
2014-Jul-25 07:33N 57°26' E 011°22'1312.7
2014-Jul-25 06:33N 57°36' E 011°06'1312.8
2014-Jul-25 05:33N 57°45' E 010°49'1212.1
2014-Jul-25 04:33N 57°46' E 010°26'1212.5
2014-Jul-25 03:33N 57°45' E 010°03'1312.7
2014-Jul-25 02:33N 57°45' E 009°39'1513.2
2014-Jul-25 01:24N 57°44' E 009°11'10712.1
2014-Jul-24 16:33N 58°03' E 005°52'1312.8
2014-Jul-24 15:32N 58°11' E 005°33'1312.6
2014-Jul-24 14:29N 58°20' E 005°15'1212.7
2014-Jul-24 13:32N 58°32' E 005°15'1312.5
2014-Jul-24 12:32N 58°44' E 005°17'1212.5
2014-Jul-24 11:33N 58°57' E 005°18'1211.8
2014-Jul-24 10:33N 59°08' E 005°26'1212.5
2014-Jul-24 09:34N 59°16' E 005°44'1111.0
2014-Jul-24 08:32N 59°22' E 006°03'0 0.0
2014-Jul-24 07:30N 59°22' E 006°03'0 0.0
2014-Jul-24 05:20N 59°22' E 006°03'0 0.0
2014-Jul-24 04:26N 59°22' E 006°03'0 0.0
2014-Jul-23 22:26N 59°22' E 006°03'0 0.0
2014-Jul-23 21:20N 59°22' E 006°03'0 0.0
2014-Jul-23 19:31N 59°22' E 006°03'0 0.0
2014-Jul-23 18:30N 59°22' E 006°03'0 0.0
2014-Jul-23 17:24N 59°22' E 006°03'0 0.0
2014-Jul-23 16:33N 59°22' E 006°03'0 0.0
2014-Jul-23 15:29N 59°22' E 006°03'0 0.0
2014-Jul-23 14:26N 59°22' E 006°03'0 0.0
2014-Jul-23 13:32N 59°22' E 006°03'10 9.9
2014-Jul-23 12:33N 59°17' E 005°46'1514.6
2014-Jul-23 11:34N 59°06' E 005°29'1010.2
2014-Jul-23 10:33N 58°57' E 005°19'1111.4
2014-Jul-23 09:33N 58°46' E 005°16'1212.5
2014-Jul-23 08:34N 58°34' E 005°12'1312.2
2014-Jul-23 07:32N 58°21' E 005°09'1312.5
2014-Jul-23 06:31N 58°09' E 005°07'21412.5
2014-Jul-22 13:28N 54°35' E 004°56'1112.3
2014-Jul-22 12:33N 54°24' E 004°56'1212.2
2014-Jul-22 11:33N 54°11' E 004°55'1212.1
2014-Jul-22 10:33N 53°59' E 004°54'1212.4
2014-Jul-22 09:33N 53°47' E 004°51'1312.7
2014-Jul-22 08:33N 53°35' E 004°48'1211.7
2014-Jul-22 07:31N 53°23' E 004°40'1212.0
2014-Jul-22 06:31N 53°12' E 004°33'1111.8
2014-Jul-22 05:33N 53°02' E 004°24'1212.1
2014-Jul-22 04:33N 52°51' E 004°15'1312.1
2014-Jul-22 03:29N 52°41' E 004°03'1212.4
2014-Jul-22 02:29N 52°32' E 003°48'1212.1
2014-Jul-22 01:31N 52°22' E 003°38'1512.9
2014-Jul-22 00:23N 52°09' E 003°29'1413.5
2014-Jul-21 23:19N 51°55' E 003°22'1213.6
2014-Jul-21 22:25N 51°43' E 003°16'1113.1
2014-Jul-21 21:33N 51°33' E 003°25'1111.5
2014-Jul-21 20:34N 51°26' E 003°40'311.3
2014-Jul-21 20:18N 51°24' E 003°43'6 8.0
2014-Jul-21 19:33N 51°20' E 003°49'7 6.6
2014-Jul-21 18:34N 51°13' E 003°48'4 3.9
2014-Jul-21 17:33N 51°09' E 003°47'0 0.0
2014-Jul-21 16:26N 51°09' E 003°47'0 0.0
2014-Jul-21 15:26N 51°09' E 003°47'0 0.0
2014-Jul-21 14:25N 51°09' E 003°47'0 0.0
2014-Jul-21 13:22N 51°09' E 003°47'0 0.0
2014-Jul-21 12:18N 51°09' E 003°47'0 0.0
2014-Jul-21 11:24N 51°09' E 003°47'0 0.0
2014-Jul-21 10:30N 51°09' E 003°47'0 0.0
2014-Jul-21 09:23N 51°09' E 003°47'0 0.0
2014-Jul-21 08:29N 51°09' E 003°47'0 0.0
2014-Jul-21 07:16N 51°09' E 003°47'0 0.0
2014-Jul-21 06:28N 51°09' E 003°47'0 0.0
2014-Jul-21 05:27N 51°09' E 003°47'0 0.0
2014-Jul-21 04:21N 51°09' E 003°47'0 0.0
2014-Jul-21 03:33N 51°09' E 003°47'0 0.0
2014-Jul-21 02:26N 51°09' E 003°47'0 0.0
2014-Jul-21 01:13N 51°09' E 003°47'0 0.0
2014-Jul-21 00:32N 51°09' E 003°47'0 0.0
2014-Jul-20 23:25N 51°09' E 003°47'0 0.0
2014-Jul-20 22:18N 51°09' E 003°47'0 0.0
2014-Jul-20 21:18N 51°09' E 003°47'0 0.0
2014-Jul-20 20:23N 51°09' E 003°47'0 0.0
2014-Jul-20 19:29N 51°09' E 003°47'0 0.0
2014-Jul-20 18:32N 51°09' E 003°47'0 0.0
2014-Jul-20 17:27N 51°09' E 003°47'0 0.0
2014-Jul-20 16:31N 51°09' E 003°47'0 0.0
2014-Jul-20 15:15N 51°09' E 003°47'0 0.0
2014-Jul-20 14:33N 51°09' E 003°47'0 0.0
2014-Jul-20 13:29N 51°09' E 003°47'0 0.0
2014-Jul-20 12:26N 51°09' E 003°47'0 0.0
2014-Jul-20 11:26N 51°09' E 003°47'0 0.0
2014-Jul-20 10:31N 51°09' E 003°47'0 0.0
2014-Jul-20 09:31N 51°09' E 003°47'0 0.0
2014-Jul-20 08:06N 51°09' E 003°47'0 0.0
2014-Jul-20 07:18N 51°09' E 003°47'0 0.0
2014-Jul-20 06:26N 51°09' E 003°47'0 0.0
2014-Jul-20 05:29N 51°09' E 003°47'0 0.0
2014-Jul-20 04:32N 51°09' E 003°47'0 0.0
2014-Jul-20 03:31N 51°09' E 003°47'0 0.0
2014-Jul-20 02:28N 51°09' E 003°47'0 0.0
2014-Jul-20 01:33N 51°09' E 003°47'0 0.0
2014-Jul-20 00:27N 51°09' E 003°47'0 0.0
2014-Jul-19 23:32N 51°09' E 003°47'0 0.0
2014-Jul-19 22:32N 51°09' E 003°47'0 0.0
2014-Jul-19 21:32N 51°09' E 003°47'0 0.0
2014-Jul-19 20:31N 51°09' E 003°47'0 0.0
2014-Jul-19 19:28N 51°09' E 003°47'0 0.0
2014-Jul-19 18:33N 51°09' E 003°47'0 0.0
2014-Jul-19 17:33N 51°09' E 003°47'0 0.0
2014-Jul-19 16:33N 51°09' E 003°47'0 0.0
2014-Jul-19 15:29N 51°09' E 003°47'0 0.0
2014-Jul-19 14:32N 51°09' E 003°47'0 0.0
2014-Jul-19 13:31N 51°09' E 003°47'0 0.0
2014-Jul-19 12:31N 51°09' E 003°47'0 0.0
2014-Jul-19 11:27N 51°09' E 003°47'0 0.0
2014-Jul-19 10:33N 51°09' E 003°47'0 0.0
2014-Jul-19 09:32N 51°09' E 003°47'0 0.0
2014-Jul-19 08:31N 51°09' E 003°47'0 0.0
2014-Jul-19 07:33N 51°09' E 003°47'0 0.0
2014-Jul-19 06:21N 51°09' E 003°47'0 0.0
2014-Jul-19 05:33N 51°09' E 003°47'0 0.0
2014-Jul-19 04:29N 51°09' E 003°47'0 0.0
2014-Jul-19 03:29N 51°09' E 003°47'0 0.0
2014-Jul-19 02:25N 51°09' E 003°47'0 0.0
2014-Jul-19 01:28N 51°09' E 003°47'0 0.0
2014-Jul-19 00:27N 51°09' E 003°47'0 0.0
2014-Jul-18 23:33N 51°09' E 003°47'0 0.0
2014-Jul-18 22:33N 51°09' E 003°47'0 0.0
2014-Jul-18 20:23N 51°09' E 003°47'0 0.0
2014-Jul-18 19:25N 51°09' E 003°47'0 0.0
2014-Jul-18 18:22N 51°09' E 003°47'0 0.0
2014-Jul-18 17:30N 51°09' E 003°47'0 0.0
2014-Jul-18 16:33N 51°09' E 003°47'0 0.0
2014-Jul-18 15:27N 51°09' E 003°47'0 0.0
2014-Jul-18 14:33N 51°09' E 003°47'0 0.0
2014-Jul-18 13:33N 51°09' E 003°47'0 0.0
2014-Jul-18 12:32N 51°09' E 003°47'0 0.0
2014-Jul-18 11:32N 51°09' E 003°47'0 0.0
2014-Jul-18 10:31N 51°09' E 003°47'0 0.0
2014-Jul-18 09:28N 51°09' E 003°47'0 0.0
2014-Jul-18 08:27N 51°09' E 003°47'0 0.0
2014-Jul-18 07:34N 51°09' E 003°47'0 0.0
2014-Jul-18 06:30N 51°09' E 003°47'0 0.0
2014-Jul-18 05:33N 51°09' E 003°47'0 0.0
2014-Jul-18 04:20N 51°09' E 003°47'0 0.0
2014-Jul-18 03:32N 51°09' E 003°47'0 0.0
2014-Jul-18 02:31N 51°09' E 003°47'0 0.0
2014-Jul-18 01:25N 51°09' E 003°47'0 0.0
2014-Jul-18 00:30N 51°09' E 003°47'0 0.0
2014-Jul-17 23:27N 51°09' E 003°47'0 0.0
2014-Jul-17 22:33N 51°09' E 003°47'0 0.0
2014-Jul-17 21:33N 51°09' E 003°47'0 0.0
2014-Jul-17 20:29N 51°09' E 003°47'0 0.0
2014-Jul-17 19:32N 51°09' E 003°47'0 0.0
2014-Jul-17 18:32N 51°09' E 003°47'0 0.0
2014-Jul-17 17:25N 51°09' E 003°47'0 0.0
2014-Jul-17 16:25N 51°09' E 003°47'0 0.0
2014-Jul-17 15:22N 51°09' E 003°47'0 0.0
2014-Jul-17 14:31N 51°09' E 003°47'0 0.0
2014-Jul-17 13:18N 51°09' E 003°47'0 0.0
2014-Jul-17 12:30N 51°09' E 003°47'0 0.0
2014-Jul-17 11:32N 51°09' E 003°47'0 0.0
2014-Jul-17 10:32N 51°09' E 003°47'0 0.0
2014-Jul-17 09:33N 51°09' E 003°47'0 0.0
2014-Jul-17 08:31N 51°09' E 003°47'0 0.0
2014-Jul-17 06:22N 51°09' E 003°47'0 0.0
2014-Jul-17 05:30N 51°09' E 003°47'0 0.0
2014-Jul-17 04:30N 51°09' E 003°47'0 0.0
2014-Jul-17 03:27N 51°09' E 003°47'0 0.0
2014-Jul-17 02:32N 51°09' E 003°47'0 0.0
2014-Jul-17 01:28N 51°09' E 003°47'0 0.0
2014-Jul-17 00:31N 51°09' E 003°47'0 0.0
2014-Jul-16 23:24N 51°09' E 003°47'0 0.0
2014-Jul-16 22:34N 51°09' E 003°47'0 0.0
2014-Jul-16 21:32N 51°09' E 003°47'0 0.0
2014-Jul-16 20:26N 51°09' E 003°47'0 0.0
2014-Jul-16 19:26N 51°09' E 003°47'0 0.0
2014-Jul-16 18:31N 51°09' E 003°47'0 0.0
2014-Jul-16 17:25N 51°09' E 003°47'0 0.0
2014-Jul-16 16:30N 51°09' E 003°47'0 0.0
2014-Jul-16 15:33N 51°09' E 003°47'0 0.0
2014-Jul-16 14:32N 51°09' E 003°47'0 0.0
2014-Jul-16 13:23N 51°09' E 003°47'0 0.0
2014-Jul-16 12:29N 51°09' E 003°47'0 0.0
2014-Jul-16 11:33N 51°09' E 003°47'0 0.0
2014-Jul-16 10:32N 51°09' E 003°47'0 0.0
2014-Jul-16 09:27N 51°09' E 003°47'0 0.0
2014-Jul-16 08:32N 51°09' E 003°47'0 0.0
2014-Jul-16 07:34N 51°09' E 003°47'0 0.0
2014-Jul-16 06:32N 51°09' E 003°47'0 0.0
2014-Jul-16 05:33N 51°09' E 003°47'0 0.0
2014-Jul-16 04:33N 51°09' E 003°47'0 0.0
2014-Jul-16 03:34N 51°09' E 003°47'0 0.0
2014-Jul-16 02:33N 51°09' E 003°47'0 0.0
2014-Jul-16 01:32N 51°09' E 003°47'0 0.0
2014-Jul-16 00:25N 51°09' E 003°47'0 0.0
2014-Jul-15 23:12N 51°09' E 003°47'0 0.0
2014-Jul-15 22:33N 51°09' E 003°47'0 0.0
2014-Jul-15 21:32N 51°09' E 003°47'0 0.0
2014-Jul-15 20:26N 51°09' E 003°47'0 0.0
2014-Jul-15 19:32N 51°09' E 003°47'0 0.0
2014-Jul-15 18:33N 51°09' E 003°47'0 0.0
2014-Jul-15 17:23N 51°09' E 003°47'0 0.0
2014-Jul-15 16:28N 51°09' E 003°47'0 0.0
2014-Jul-15 15:13N 51°09' E 003°47'0 0.0
2014-Jul-15 14:33N 51°09' E 003°47'0 0.0
2014-Jul-15 13:32N 51°09' E 003°47'0 0.0
2014-Jul-15 12:25N 51°09' E 003°47'  

Dump ship's entire track history